Latest Coastal Weather Observations for Taree Airport

IDN60701

Issued at 5:01 pm EDT Tuesday 28 March 2017 (issued every 10 minutes, with the page automatically refreshed every 10 minutes)

About coastal observations | Map of coastal stations | Coastal observations for NSW | Marine services | Other Formats
Station Details ID: 060141 Name: TAREE AIRPORT AWS Lat: -31.89 Lon: 152.51 Height: 8.0 m
Data from the previous 72 hours. | See also: Recent months at Taree Airport
Date/Time
EDT
Temp
°C
Wind Pressure Rain since
9am
mm
Weather Cloud Vis
km
Sea
Height
m
Swell
Dir  Spd
kts
Gust
kts
hPa Trend Height
m
Period
s
Dir
28/04:30pm 26.4 E 9 13 1011.4 - 0.0 - - 10 - - - -
28/04:00pm 26.8 E 9 13 1011.4 - 0.0 - - 10 - - - -
28/03:30pm 27.3 ESE 8 12 1011.3 - 0.0 - - 10 - - - -
28/03:00pm 27.6 ESE 10 14 1011.3 - 0.0 - - 10 - - - -
28/02:30pm 27.6 ESE 9 12 1011.4 - 0.0 - - 10 - - - -
28/02:00pm 27.7 ESE 9 13 1011.5 - 0.0 - - 10 - - - -
28/01:30pm 28.5 E 8 11 1011.8 - 0.0 - - 10 - - - -
28/01:00pm 29.0 ESE 5 9 1012.0 - 0.0 - - 10 - - - -
28/12:30pm 28.7 SSE 6 8 1012.3 - 0.0 - - 10 - - - -
28/12:00pm 28.2 SSE 6 8 1012.7 - 0.0 - - 10 - - - -
28/11:30am 27.9 S 6 9 1013.1 - 0.0 - - 10 - - - -
28/11:00am 27.5 SSE 4 6 1013.2 - 0.0 - - - - - - -
28/10:30am 26.2 SSW 4 5 1013.3 - 0.0 - - - - - - -
28/10:00am 24.6 W 5 7 1013.4 - 0.0 - - - - - - -
28/09:30am 22.9 SSW 7 10 1013.2 - 0.0 - - - - - - -
28/09:00am 21.4 W 4 5 1012.6 - 0.0 - - - - - - -
28/08:30am 20.3 WSW 4 4 1012.3 - 0.0 - - - - - - -
28/08:00am 19.1 CALM 0 1 1012.1 - 0.0 - - - - - - -
28/07:30am 18.1 WSW 3 5 1011.8 - 0.0 - - - - - - -
28/07:00am 17.6 CALM 0 0 1011.4 - 0.0 - - - - - - -
28/06:30am 17.6 CALM 0 0 1011.0 - 0.0 - - - - - - -
28/06:00am 17.8 CALM 0 0 1010.7 - 0.0 - - - - - - -
28/05:30am 17.5 CALM 0 0 1010.5 - 0.0 - - - - - - -
28/05:00am 18.0 CALM 0 0 1010.2 - 0.0 - - - - - - -
28/04:30am 18.1 NW 3 3 1010.3 - 0.0 - - - - - - -
28/04:00am 18.1 NW 4 5 1010.5 - 0.0 - - - - - - -
28/03:30am 18.1 WNW 3 4 1010.6 - 0.0 - - - - - - -
28/03:00am 18.8 SW 5 5 1011.2 - 0.0 - - - - - - -
28/02:30am 19.0 W 3 5 1011.1 - 0.0 - - - - - - -
28/02:00am 19.2 NNE 1 3 1011.2 - 0.0 - - - - - - -
28/01:30am 19.6 CALM 0 0 1011.6 - 0.0 - - - - - - -
28/01:00am 19.7 CALM 0 0 1011.8 - 0.0 - - - - - - -
28/12:30am 20.3 NNE 2 4 1012.0 - 0.0 - - - - - - -
28/12:00am 20.6 NNE 3 4 1012.2 - 0.0 - - - - - - -
 
Date/Time
EDT
Temp
°C
Wind Pressure Rain since
9am
mm
Weather Cloud Vis
km
Sea
Height
m
Swell
Dir  Spd
kts
Gust
kts
hPa Trend Height
m
Period
s
Dir
27/11:30pm 21.2 NNE 3 5 1012.4 - 0.0 - - - - - - -
27/11:00pm 21.4 NNE 5 7 1012.1 - 0.0 - - - - - - -
27/10:30pm 21.7 NNE 5 8 1012.5 - 0.0 - - - - - - -
27/10:00pm 21.7 NNE 5 7 1012.9 - 0.0 - - 10 - - - -
27/09:30pm 21.8 NNE 5 7 1012.7 - 0.0 - - 10 - - - -
27/09:00pm 22.1 NNE 6 8 1012.7 - 0.0 - - 10 - - - -
27/08:30pm 22.1 NE 7 11 1012.4 - 0.0 - - 10 - - - -
27/08:00pm 21.6 NE 8 10 1012.3 - 0.0 - - 10 - - - -
27/07:30pm 21.9 NE 9 11 1012.4 - 0.0 - - 10 - - - -
27/07:00pm 22.9 ENE 9 12 1012.3 - 0.0 - - 10 - - - -
27/06:30pm 23.8 ENE 12 15 1012.1 - 0.0 - - 10 - - - -
27/06:00pm 24.6 ENE 13 17 1011.8 - 0.0 - - 10 - - - -
27/05:30pm 25.3 ENE 13 17 1011.9 - 0.0 - - 10 - - - -
27/05:00pm 25.9 ENE 12 16 1012.0 - 0.0 - - 10 - - - -
27/04:30pm 25.9 ENE 13 18 1012.2 - 0.0 - - 10 - - - -
27/04:00pm 26.2 E 11 16 1012.4 - 0.0 - - 10 - - - -
27/03:30pm 26.6 ENE 13 17 1012.7 - 0.0 - - 10 - - - -
27/03:00pm 26.7 E 12 17 1012.8 - 0.0 - Mostly clear 10 - - - -
27/02:30pm 27.1 NE 6 11 1013.3 - 0.0 - Partly cloudy 10 - - - -
27/02:00pm 27.1 ENE 7 10 1013.9 - 0.0 - Partly cloudy 10 - - - -
27/01:30pm 27.2 ENE 7 10 1014.4 - 0.0 - Partly cloudy 10 - - - -
27/01:00pm 26.7 ENE 6 13 1015.0 - 0.0 - Partly cloudy 10 - - - -
27/12:30pm 26.9 NE 7 11 1015.5 - 0.0 - Partly cloudy - - - - -
27/12:00pm 25.6 NNE 6 9 1016.2 - 0.0 - Partly cloudy - - - - -
27/11:30am 24.7 E 3 6 1016.5 - 0.0 - Partly cloudy - - - - -
27/11:00am 24.2 SSE 2 4 1016.7 - 0.0 - Partly cloudy - - - - -
27/10:30am 21.9 SSW 4 5 1017.1 - 0.0 - - - - - - -
27/10:00am 21.4 WSW 3 4 1017.3 - 0.0 - - - - - - -
27/09:37am 20.5 WSW 6 7 1017.2 - 0.0 - Partly cloudy - - - - -
27/09:30am 20.4 WSW 5 7 1017.2 - 0.0 - Partly cloudy - - - - -
27/09:00am 19.3 WSW 4 5 1017.2 - 0.4 - Cloudy - - - - -
27/08:30am 18.6 WSW 4 5 1017.1 - 0.4 - Cloudy - - - - -
27/08:00am 18.1 SW 2 3 1016.7 - 0.4 - Cloudy - - - - -
27/07:30am 17.8 SW 4 5 1016.5 - 0.4 - Cloudy - - - - -
27/07:00am 17.6 NE 3 5 1016.3 - 0.2 - Cloudy - - - - -
27/06:30am 17.6 CALM 0 0 1016.1 - 0.2 - Cloudy - - - - -
27/06:00am 17.6 CALM 0 2 1015.8 - 0.2 - Cloudy - - - - -
27/05:30am 17.7 NE 5 6 1015.7 - 0.2 - Cloudy - - - - -
27/05:00am 17.8 CALM 0 0 1015.5 - 0.2 - Cloudy - - - - -
27/04:30am 18.3 ESE 4 5 1015.8 - 0.2 - Cloudy - - - - -
27/04:15am 18.5 ESE 2 4 1015.8 - 0.2 - Partly cloudy - - - - -
27/04:00am 18.1 CALM 0 0 1016.0 - 0.2 - - - - - - -
27/03:30am 18.3 CALM 0 0 1016.1 - 0.2 - - - - - - -
27/03:00am 18.7 CALM 0 0 1016.4 - 0.2 - Mostly clear - - - - -
27/02:30am 18.8 CALM 0 0 1016.6 - 0.2 - - - - - - -
27/02:00am 19.0 CALM 0 2 1016.8 - 0.2 - - - - - - -
27/01:30am 19.1 ESE 3 4 1017.0 - 0.2 - Partly cloudy - - - - -
27/01:00am 19.3 CALM 0 0 1017.1 - 0.2 - Partly cloudy - - - - -
27/12:30am 19.1 CALM 0 0 1017.2 - 0.2 - - - - - - -
27/12:00am 19.9 ESE 2 3 1017.5 - 0.2 - - - - - - -
 
Date/Time
EDT
Temp
°C
Wind Pressure Rain since
9am
mm
Weather Cloud Vis
km
Sea
Height
m
Swell
Dir  Spd
kts
Gust
kts
hPa Trend Height
m
Period
s
Dir
26/11:30pm 20.2 ESE 3 4 1017.8 - 0.2 - - - - - - -
26/11:00pm 20.6 CALM 0 0 1017.8 - 0.2 - Partly cloudy - - - - -
26/10:30pm 20.5 CALM 0 0 1017.9 - 0.2 - Partly cloudy - - - - -
26/10:00pm 20.7 ESE 3 4 1017.8 - 0.2 - Partly cloudy - - - - -
26/09:30pm 21.3 CALM 0 0 1017.5 - 0.2 - - - - - - -
26/09:00pm 21.8 CALM 0 0 1017.3 - 0.2 - Cloudy - - - - -
26/08:30pm 21.8 CALM 0 0 1017.0 - 0.2 - Partly cloudy - - - - -
26/08:00pm 22.2 ESE 3 4 1016.4 - 0.2 - - - - - - -
26/07:30pm 22.4 ESE 4 5 1016.1 - 0.2 - Partly cloudy - - - - -
26/07:00pm 23.2 ESE 5 7 1015.7 - 0.2 - Partly cloudy - - - - -
26/06:30pm 23.6 ESE 6 9 1015.1 - 0.2 - Partly cloudy - - - - -
26/06:00pm 24.1 ESE 6 11 1014.9 - 0.2 - Cloudy - - - - -
26/05:30pm 24.3 ESE 9 13 1014.3 - 0.2 - Partly cloudy - - - - -
26/05:00pm 24.4 ESE 8 11 1014.1 - 0.2 - Partly cloudy - - - - -
26/04:30pm 24.7 ESE 10 14 1013.9 - 0.2 - Partly cloudy - - - - -
26/04:00pm 25.5 ESE 10 14 1013.8 - 0.2 - Partly cloudy - - - - -
26/03:30pm 26.2 ESE 10 15 1013.9 - 0.2 - Partly cloudy - - - - -
26/03:00pm 25.1 ESE 9 12 1014.0 - 0.2 - Cloudy - - - - -
26/02:30pm 25.9 ESE 10 15 1013.8 - 0.2 - Partly cloudy - - - - -
26/02:00pm 25.7 ESE 9 13 1014.1 - 0.2 - Partly cloudy - - - - -
26/01:30pm 26.1 SSE 7 11 1014.4 - 0.2 - Partly cloudy - - - - -
26/01:00pm 25.9 ESE 6 8 1014.9 - 0.2 - Partly cloudy - - - - -
26/12:30pm 25.7 SSE 5 9 1015.2 - 0.2 - Partly cloudy - - - - -
26/12:00pm 25.4 SSW 3 7 1015.4 - 0.2 - Mostly cloudy - - - - -
26/11:30am 24.9 S 6 8 1015.5 - 0.2 - Partly cloudy - - - - -
26/11:00am 24.2 SW 5 7 1015.7 - 0.2 - Partly cloudy - - - - -
26/10:30am 23.9 SW 5 7 1015.5 - 0.0 - Partly cloudy - - - - -
26/10:00am 23.5 WSW 5 7 1015.4 - 0.0 - - - - - - -
26/09:30am 22.1 SW 5 6 1015.3 - 0.0 - - - - - - -
26/09:00am 21.0 N 2 5 1014.9 - 13.2 - Mostly cloudy - - - - -
26/08:30am 20.4 NNE 2 4 1014.9 - 13.2 - Partly cloudy - - - - -
26/08:00am 20.2 NNE 4 5 1014.4 - 13.2 - Partly cloudy - - - - -
26/07:30am 19.7 CALM 0 0 1013.9 - 13.2 - Partly cloudy - - - - -
26/07:00am 19.5 CALM 0 0 1013.4 - 13.2 - Partly cloudy - - - - -
26/06:49am 19.6 CALM 0 2 1013.2 - 13.2 - Partly cloudy - - - - -
26/06:30am 19.7 NNE 3 4 1013.1 - 13.2 - Partly cloudy - - - - -
26/06:13am 19.7 NNE 5 5 1012.9 - 13.2 - Partly cloudy - - - - -
26/06:00am 19.9 CALM 0 0 1012.9 - 13.2 - Mostly cloudy - - - - -
26/05:43am 19.9 CALM 0 0 1013.0 - 13.2 - Partly cloudy - - - - -
26/05:30am 19.8 CALM 0 0 1012.8 - 13.2 - Partly cloudy - - - - -
26/05:00am 19.8 CALM 0 0 1012.6 - 13.2 - Partly cloudy - - - - -
26/04:30am 19.9 NNE 1 3 1012.4 - 13.2 - Partly cloudy - - - - -
26/04:23am 19.9 NNE 3 4 1012.5 - 13.2 - Partly cloudy - - - - -
26/04:00am 20.0 NNE 3 5 1012.4 - 13.2 - Partly cloudy - - - - -
26/03:44am 20.0 NNE 3 5 1012.6 - 13.2 - Partly cloudy - - - - -
26/03:30am 20.0 CALM 0 0 1012.5 - 13.2 - Partly cloudy - - - - -
26/03:00am 19.9 NNE 3 4 1012.7 - 13.2 - Mostly cloudy - - - - -
26/02:38am 19.9 NNE 3 5 1013.2 - 13.2 - Partly cloudy - - - - -
26/02:30am 19.9 NNE 4 4 1013.3 - 13.2 - Partly cloudy - - - - -
26/02:00am 19.9 CALM 0 0 1013.6 - 13.2 - Partly cloudy - - - - -
26/01:30am 20.0 NNE 4 5 1013.8 - 13.2 - Partly cloudy - - - - -
26/01:00am 20.2 NNE 3 4 1014.1 - 12.8 - Partly cloudy - - - - -
26/12:30am 20.5 NE 1 6 1014.4 - 7.8 - Partly cloudy - - - - -
26/12:00am 21.0 NE 3 4 1014.3 - 1.0 Rain Mostly cloudy - - - - -
 
Date/Time
EDT
Temp
°C
Wind Pressure Rain since
9am
mm
Weather Cloud Vis
km
Sea
Height
m
Swell
Dir  Spd
kts
Gust
kts
hPa Trend Height
m
Period
s
Dir
25/11:30pm 21.4 NE 1 5 1014.0 - 0.0 - Partly cloudy - - - - -
25/11:00pm 21.3 NE 4 5 1014.1 - 0.0 - Partly cloudy - - - - -
25/10:30pm 21.5 NE 4 6 1014.3 - 0.0 - Partly cloudy - - - - -
25/10:00pm 21.1 NE 5 6 1014.4 - 0.0 - Partly cloudy - - - - -
25/09:30pm 21.2 NE 5 6 1014.5 - 0.0 - Partly cloudy - - - - -
25/09:00pm 21.2 NE 6 7 1014.2 - 0.0 - Mostly clear - - - - -
25/08:30pm 21.8 NE 7 8 1013.9 - 0.0 - Partly cloudy - - - - -
25/08:00pm 22.1 ENE 7 9 1013.9 - 0.0 - Partly cloudy - - - - -
25/07:30pm 22.3 ENE 6 7 1013.8 - 0.0 - Partly cloudy - - - - -
25/07:00pm 22.5 ENE 6 7 1013.6 - 0.0 - Partly cloudy - - - - -
25/06:30pm 23.0 ENE 6 8 1013.5 - 0.0 - Partly cloudy - - - - -
25/06:00pm 23.3 NE 8 10 1013.3 - 0.0 - - - - - - -
25/05:30pm 24.0 NE 8 11 1013.3 - 0.0 - - - - - - -

Other Formats:

Comma delimited format used in spreadsheet applications
http://www.bom.gov.au/fwo/IDN60701/IDN60701.95784.axf

JavaScript Object Notation format (JSON) in row-major order
http://www.bom.gov.au/fwo/IDN60701/IDN60701.95784.json